Latest Weather Observations for Butlers Gorge

IDT60801

Issued at 11:02 am EDT Friday 30 January 2015 (issued every 30 minutes, with the page automatically refreshed every 10 minutes)

About weather observations | Map of weather stations | Latest weather observations for TAS | Other Formats
Station Details ID: 096003 Name: BUTLERS GORGE Lat: -42.28 Lon: 146.28 Height: 667.0 m
Data from the previous 72 hours. | See also: Recent months at Butlers Gorge
Date/Time
EDT
Temp
°C
App
Temp
°C
Dew
Point
Rel
Hum
%
Delta-T
°C
Wind Press
QNH
hPa
Press
MSL
hPa
Rain
since 9 am
mm
Dir
 
Spd
km/h
Gust
km/h
Spd
kts
Gust
kts
30/11:00am 11.9 8.7 7.0 72 2.4 E 13 22 7 12 - - 0.0
30/10:30am 11.7 8.7 7.6 76 2.1 ENE 13 20 7 11 - - 0.0
30/10:00am 10.0 7.9 6.5 79 1.7 ESE 7 11 4 6 - - 0.0
30/09:30am 10.0 8.0 6.9 81 1.5 ENE 7 11 4 6 - - 0.0
30/09:00am 9.4 7.0 7.0 85 1.2 NE 9 13 5 7 - - 0.2
30/08:30am 8.9 6.8 6.5 85 1.2 NE 7 11 4 6 - - 0.2
30/08:00am 8.1 6.2 6.6 90 0.7 NNW 6 7 3 4 - - 0.2
30/07:30am 7.1 6.2 6.0 93 0.5 CALM 0 0 0 0 - - 0.2
30/07:00am 6.7 5.7 5.8 94 0.4 CALM 0 0 0 0 - - 0.2
30/06:30am 6.4 5.4 5.5 94 0.4 CALM 0 0 0 0 - - 0.2
30/06:00am 6.3 5.2 5.3 93 0.5 CALM 0 0 0 0 - - 0.2
30/05:30am 6.3 4.1 5.3 93 0.5 NE 6 9 3 5 - - 0.0
30/05:00am 6.4 4.1 5.0 91 0.6 NNE 6 7 3 4 - - 0.0
30/04:30am 6.3 4.0 4.8 90 0.7 NE 6 7 3 4 - - 0.0
30/04:00am 6.4 4.1 5.0 91 0.6 NNE 6 7 3 4 - - 0.0
30/03:30am 6.5 4.0 4.8 89 0.8 NE 7 11 4 6 - - 0.0
30/03:00am 6.5 3.6 4.8 89 0.8 E 9 13 5 7 - - 0.0
30/02:30am 6.5 3.6 4.8 89 0.8 E 9 17 5 9 - - 0.0
30/02:00am 6.7 3.8 4.9 88 0.8 E 9 17 5 9 - - 0.0
30/01:30am 6.6 4.1 4.8 88 0.8 ENE 7 17 4 9 - - 0.0
30/01:00am 6.7 3.8 4.9 88 0.8 E 9 19 5 10 - - 0.0
30/12:30am 6.8 4.3 4.5 85 1.0 ENE 7 13 4 7 - - 0.0
30/12:00am 7.0 4.0 4.1 82 1.3 E 9 17 5 9 - - 0.0
 
Date/Time
EDT
Temp
°C
App
Temp
°C
Dew
Point
Rel
Hum
%
Delta-T
°C
Wind Press
QNH
hPa
Press
MSL
hPa
Rain
since 9 am
mm
Dir
 
Spd
km/h
Gust
km/h
Spd
kts
Gust
kts
29/11:30pm 7.4 4.3 3.5 76 1.7 E 9 13 5 7 - - 0.0
29/11:00pm 7.6 4.4 3.3 74 1.9 E 9 19 5 10 - - 0.0
29/10:30pm 7.8 4.7 3.5 74 1.9 E 9 13 5 7 - - 0.0
29/10:00pm 8.2 4.4 4.0 75 1.9 E 13 24 7 13 - - 0.0
29/09:30pm 8.3 5.3 4.1 75 1.9 ENE 9 15 5 8 - - 0.0
29/09:00pm 8.8 5.8 4.0 72 2.2 E 9 19 5 10 - - 0.0
29/08:30pm 9.2 5.8 3.8 69 2.5 E 11 19 6 10 - - 0.0
29/08:00pm 9.7 6.7 4.1 68 2.6 E 9 15 5 8 - - 0.0
29/07:30pm 10.5 6.7 3.8 63 3.1 ESE 13 19 7 10 - - 0.0
29/07:00pm 12.2 8.6 4.9 61 3.5 E 13 24 7 13 - - 0.0
29/06:30pm 12.0 8.3 4.7 61 3.5 E 13 24 7 13 - - 0.0
29/06:00pm 11.8 8.0 3.8 58 3.7 ESE 13 22 7 12 - - 0.0
29/05:30pm 12.3 8.8 3.5 55 4.1 ESE 11 20 6 11 - - 0.0
29/05:00pm 11.8 8.0 3.8 58 3.7 ESE 13 19 7 10 - - 0.0
29/04:30pm 12.5 9.5 4.0 56 4.0 SSE 9 17 5 9 - - 0.0
29/04:00pm 12.1 8.2 5.3 63 3.3 E 15 24 8 13 - - 0.0
29/03:30pm 12.0 8.6 4.2 59 3.7 SE 11 19 6 10 - - 0.0
29/03:00pm 11.3 7.9 3.8 60 3.5 ESE 11 20 6 11 - - 0.0
29/02:30pm 11.5 8.1 4.0 60 3.5 SE 11 22 6 12 - - 0.0
29/02:00pm 11.0 7.6 4.2 63 3.2 ENE 11 19 6 10 - - 0.0
29/01:30pm 10.5 7.1 4.2 65 2.9 E 11 20 6 11 - - 0.0
29/01:00pm 9.9 6.2 4.3 68 2.6 ESE 13 20 7 11 - - 0.0
29/12:30pm 10.1 6.4 4.5 68 2.6 ESE 13 20 7 11 - - 0.0
29/12:00pm 10.3 7.0 4.7 68 2.6 ESE 11 20 6 11 - - 0.0
29/11:30am 9.2 5.6 4.8 74 2.0 ESE 13 22 7 12 - - 0.0
29/11:00am 8.5 4.8 4.7 77 1.8 ESE 13 22 7 12 - - 0.0
29/10:30am 8.4 5.6 5.0 79 1.6 ESE 9 19 5 10 - - 0.0
29/10:00am 7.7 5.2 4.7 81 1.4 E 7 15 4 8 - - 0.0
29/09:30am 7.3 4.0 4.6 83 1.2 E 11 19 6 10 - - 0.0
29/09:00am 7.1 4.2 4.9 86 1.0 ENE 9 17 5 9 - - 0.0
29/08:30am 6.9 3.7 4.9 87 0.9 ESE 11 20 6 11 - - 0.0
29/08:00am 6.7 3.1 4.9 88 0.8 E 13 22 7 12 - - 0.0
29/07:30am 6.7 3.8 4.9 88 0.8 E 9 13 5 7 - - 0.0
29/07:00am 6.5 3.6 4.8 89 0.8 ENE 9 13 5 7 - - 0.0
29/06:30am 6.2 3.3 4.5 89 0.8 E 9 13 5 7 - - 0.0
29/06:00am 6.2 3.7 5.0 92 0.5 E 7 15 4 8 - - 0.0
29/05:30am 6.0 3.5 4.8 92 0.5 E 7 15 4 8 - - 0.0
29/05:00am 6.0 3.5 4.6 91 0.6 ENE 7 11 4 6 - - 0.0
29/04:30am 6.1 3.5 4.3 88 0.8 ENE 7 11 4 6 - - 0.0
29/04:00am 6.1 3.5 4.1 87 0.9 E 7 11 4 6 - - 0.0
29/03:30am 6.1 3.1 3.9 86 1.0 ESE 9 15 5 8 - - 0.0
29/03:00am 6.2 3.1 3.7 84 1.1 ESE 9 15 5 8 - - 0.0
29/02:30am 5.5 3.0 3.7 88 0.8 ENE 6 7 3 4 - - 0.0
29/02:00am 5.1 2.9 3.6 90 0.7 ENE 4 7 2 4 - - 0.0
29/01:30am 4.6 2.7 2.6 87 0.8 NE 2 7 1 4 - - 0.0
29/01:00am 5.9 3.3 3.4 84 1.1 E 6 11 3 6 - - 0.0
29/12:30am 6.0 3.2 3.3 83 1.2 E 7 11 4 6 - - 0.0
29/12:00am 5.8 4.0 3.3 84 1.1 E 2 6 1 3 - - 0.0
 
Date/Time
EDT
Temp
°C
App
Temp
°C
Dew
Point
Rel
Hum
%
Delta-T
°C
Wind Press
QNH
hPa
Press
MSL
hPa
Rain
since 9 am
mm
Dir
 
Spd
km/h
Gust
km/h
Spd
kts
Gust
kts
28/11:30pm 6.7 4.1 3.1 78 1.6 E 6 9 3 5 - - 0.0
28/11:00pm 7.1 4.5 3.2 76 1.7 E 6 13 3 7 - - 0.0
28/10:30pm 7.3 4.1 3.0 74 1.9 ESE 9 20 5 11 - - 0.0
28/10:00pm 7.3 4.0 2.6 72 2.0 ESE 9 17 5 9 - - 0.0
28/09:30pm 7.9 5.0 2.6 69 2.3 E 7 17 4 9 - - 0.0
28/09:00pm 8.3 4.6 2.3 66 2.6 E 11 22 6 12 - - 0.0
28/08:30pm 8.9 5.6 2.5 64 2.8 ESE 9 15 5 8 - - 0.0
28/08:00pm 9.6 5.2 2.7 62 3.1 SE 15 24 8 13 - - 0.0
28/07:30pm 10.8 6.9 3.6 61 3.3 E 13 20 7 11 - - 0.0
28/07:00pm 11.8 7.1 3.1 55 4.0 ESE 17 24 9 13 - - 0.0
28/06:30pm 12.3 8.0 3.3 54 4.1 ESE 15 26 8 14 - - 0.0
28/06:00pm 12.5 7.8 3.2 53 4.3 ESE 17 30 9 16 - - 0.0
28/05:30pm 13.0 8.8 3.9 54 4.3 E 15 26 8 14 - - 0.0
28/05:00pm 13.8 9.7 4.1 52 4.6 E 15 28 8 15 - - 0.0
28/04:30pm 14.6 11.3 4.3 50 4.9 ESE 11 20 6 11 - - 0.0
28/04:00pm 14.0 9.8 3.8 50 4.8 E 15 24 8 13 - - 0.0
28/03:30pm 14.2 10.5 4.2 51 4.8 ESE 13 26 7 14 - - 0.0
28/03:00pm 13.2 8.4 2.7 49 4.8 ENE 17 26 9 14 - - 0.0
28/02:30pm 13.9 9.4 4.2 52 4.6 E 17 28 9 15 - - 0.0
28/02:00pm 12.9 8.5 2.5 49 4.7 ESE 15 28 8 15 - - 0.0
28/01:30pm 13.2 9.8 3.8 53 4.4 E 11 20 6 11 - - 0.0
28/01:00pm 11.3 7.6 2.6 55 3.9 ESE 11 19 6 10 - - 0.0
28/12:30pm 10.5 6.7 3.8 63 3.1 SE 13 22 7 12 - - 0.0
28/12:00pm 11.3 8.1 5.0 65 3.0 E 11 22 6 12 - - 0.0
28/11:30am 11.1 7.0 4.6 64 3.1 ESE 15 28 8 15 - - 0.0
28/11:00am 11.3 7.6 4.5 63 3.2 ESE 13 22 7 12 - - 0.0
28/10:30am 11.7 7.2 4.2 60 3.5 E 17 32 9 17 - - 0.0
28/10:00am 11.0 7.3 4.2 63 3.2 E 13 24 7 13 - - 0.0
28/09:30am 10.4 6.2 3.9 64 3.0 E 15 22 8 12 - - 0.0
28/09:00am 10.0 6.1 3.5 64 3.0 E 13 20 7 11 - - 0.0
28/08:30am 9.0 6.4 4.0 71 2.3 NE 7 9 4 5 - - 0.0
28/08:00am 7.7 6.0 4.1 78 1.6 ENE 2 7 1 4 - - 0.0
28/07:30am 7.5 6.3 4.6 82 1.3 CALM 0 7 0 4 - - 0.0
28/07:00am 6.3 5.1 4.5 88 0.8 CALM 0 0 0 0 - - 0.0
28/06:30am 6.1 4.8 4.3 88 0.8 CALM 0 2 0 1 - - 0.0
28/06:00am 6.6 4.6 4.6 87 0.9 SSE 4 9 2 5 - - 0.0
28/05:30am 6.6 4.3 4.6 87 0.9 SE 6 9 3 5 - - 0.0
28/05:00am 6.7 4.9 5.3 91 0.6 E 4 7 2 4 - - 0.0
28/04:30am 6.4 5.3 5.2 92 0.5 CALM 0 0 0 0 - - 0.0
28/04:00am 6.3 5.2 5.1 92 0.5 CALM 0 6 0 3 - - 0.0
28/03:30am 6.8 4.6 5.3 90 0.7 E 6 9 3 5 - - 0.0
28/03:00am 6.8 5.8 5.7 93 0.5 CALM 0 6 0 3 - - 0.0
28/02:30am 7.1 6.1 5.7 91 0.7 CALM 0 6 0 3 - - 0.0
28/02:00am 7.8 6.1 6.1 89 0.8 NE 4 7 2 4 - - 0.0
28/01:30am 8.2 6.2 6.2 87 1.0 ESE 6 11 3 6 - - 0.0
28/01:00am 7.6 6.4 6.4 92 0.6 SE 2 7 1 4 - - 0.0
28/12:30am 7.3 6.4 6.1 92 0.6 CALM 0 0 0 0 - - 0.0
28/12:00am 6.9 4.8 5.7 92 0.6 W 6 9 3 5 - - 0.0
 
Date/Time
EDT
Temp
°C
App
Temp
°C
Dew
Point
Rel
Hum
%
Delta-T
°C
Wind Press
QNH
hPa
Press
MSL
hPa
Rain
since 9 am
mm
Dir
 
Spd
km/h
Gust
km/h
Spd
kts
Gust
kts
27/11:30pm 6.8 5.4 5.7 93 0.5 SW 2 6 1 3 - - 0.0
27/11:00pm 6.8 5.8 5.4 91 0.6 CALM 0 0 0 0 - - 0.0
27/10:30pm 7.1 6.1 5.4 89 0.8 CALM 0 0 0 0 - - 0.0
27/10:00pm 7.5 6.5 5.6 88 0.9 CALM 0 0 0 0 - - 0.0
27/09:30pm 8.7 6.9 5.4 80 1.5 SSE 4 9 2 5 - - 0.0
27/09:00pm 9.7 7.1 5.9 77 1.8 S 9 15 5 8 - - 0.0
27/08:30pm 10.6 8.0 6.0 73 2.2 SSW 9 15 5 8 - - 0.0
27/08:00pm 11.1 8.9 5.4 68 2.7 SW 6 11 3 6 - - 0.0
27/07:30pm 11.6 9.0 4.3 61 3.4 SW 7 11 4 6 - - 0.0
27/07:00pm 11.9 9.6 5.5 65 3.1 SW 7 11 4 6 - - 0.0
27/06:30pm 13.1 10.2 4.5 56 4.1 S 9 19 5 10 - - 0.0
27/06:00pm 12.5 8.8 4.7 59 3.7 SW 13 20 7 11 - - 0.0
27/05:30pm 13.6 11.0 4.2 53 4.5 NNW 7 11 4 6 - - 0.0
27/05:00pm 12.4 10.0 5.1 61 3.5 SSW 7 11 4 6 - - 0.0
27/04:30pm 12.8 10.0 5.0 59 3.7 SSW 9 17 5 9 - - 0.0
27/04:00pm 12.6 9.7 4.6 58 3.8 SW 9 15 5 8 - - 0.0
27/03:30pm 12.3 9.0 4.3 58 3.8 WSW 11 17 6 9 - - 0.0
27/03:00pm 12.3 9.3 4.0 57 3.9 SW 9 17 5 9 - - 0.0
27/02:30pm 11.3 6.9 5.0 65 3.0 SW 17 24 9 13 - - 0.0
27/02:00pm 12.6 9.3 4.6 58 3.8 WSW 11 19 6 10 - - 0.0
27/01:30pm 11.2 7.4 4.0 61 3.3 WSW 13 22 7 12 - - 0.0
27/01:00pm 11.4 8.3 3.4 58 3.7 SW 9 15 5 8 - - 0.0
27/12:30pm 11.1 7.9 2.9 57 3.7 NNW 9 13 5 7 - - 0.0
27/12:00pm 11.0 7.8 3.1 58 3.6 NNW 9 17 5 9 - - 0.0
27/11:30am 10.5 7.8 3.8 63 3.1 SW 7 13 4 7 - - 0.0

Other Formats:

Comma delimited format used in spreadsheet applications
http://www.bom.gov.au/fwo/IDT60801/IDT60801.94959.axf

JavaScript Object Notation format (JSON) in row-major order
http://www.bom.gov.au/fwo/IDT60801/IDT60801.94959.json